Wilmington, DE

7:07 PM EST on December 20, 2014 (GMT -0500)
New Castle County | Change Station
CLOSE
Current Station
Airport
Location: Wilmington,
Elevation: 79 ft
Nearby Weather Stations

Elev 79 ft 39.67 °N, 75.61 °W | Updated 16 minutes ago

Partly Cloudy
Partly Cloudy
33 °F
Feels Like 33 °F
N
0
Wind Variable Wind from North

Today
High -- | Low -- °F
--% Chance of Precip.
Yesterday
High -- | Low -- °F
Precip. -- in
7:19 AM 4:40 PM
Waning Crescent, 1% visible
Pressure 30.30 in
Visibility 10.0 miles
Clouds Clear
Dew Point 21 °F
Humidity 61%
Rainfall 0.00 in
Snow Depth Not available.
UV 0 out of 12
Pollen .10 out of 12
Air Quality Not available.
Flu Activity Not available.
METAR KILG 202351Z 00000KT 10SM CLR 01/M06 A3030 RMK AO2 SLP260 T00061061 10028 20000 51008

More Conditions Fewer Conditions

Pressure 30.30 in
Visibility 10.0 miles
Clouds Clear
Dew Point 21 °F
Humidity 61%
Rainfall 0.00 in
Snow Depth Not available.
UV 0 out of 12
Pollen .10 out of 12
Air Quality Not available.
Flu Activity Not available.
METAR KILG 202351Z 00000KT 10SM CLR 01/M06 A3030 RMK AO2 SLP260 T00061061 10028 20000 51008

More Conditions Fewer Conditions

Nowcast | as of 5:13 PM EST on December 20, 2014

Into the middle of the evening mostly cloudy skies will prevail. Scattered light snow showers continue to fall from mid level clouds, but nearly all has and is expected to continue to evaporate before reaching the ground. There are some breaks in the clouds, so temperatures will vary from the upper 20s where skies are clearer in rural spots to the mid 30s where skies remain cloudier.

×

10-Day Weather Forecast

Almanac

Astronomy

Dec. 20, 2014 Rise Set
Actual Time
Civil Twilight
Nautical Twilight
Astronomical Twilight
Moon
Length of Visible Light
Length of Day
Tomorrow will be .
, % of the Moon is Illuminated

Today's Extremes

State Highs State Lows

Community

WunderPhotos

Upload Photos

1,779,320 photos uploaded!

WunderBlogs® & News

Nearby

Air Quality

  Air Quality AQ Index Pollutant
Not available.

Snow Depth

Station Depth Elevation

Earthquake Activity

City Distance Mag. Time & Date
Minimum magnitude displayed is 2.5.

Coastal Water Temperatures

Place Temperature

Nearby Weather Stations